Time;durP1;ratioP1;P1;durP2;ratioP2;P2;SDS_P1;SDS_P2;PMS_P1;PMS_P2;Temp;Humidity;BMP_temperature;BMP_pressure;BME280_temperature;BME280_humidity;BME280_pressure;Samples;Min_cycle;Max_cycle;Signal;HPM_P1;HPM_P2
2023/11/10 00:00:51;;;;;;;3.38;1.10;;;;;;;6.56;100.00;99491.25;5074957;28;20047;-74
2023/11/10 00:03:17;;;;;;;1.83;1.10;;;;;;;6.57;100.00;99492.94;5075549;28;20067;-74
2023/11/10 00:05:43;;;;;;;2.47;1.02;;;;;;;6.64;100.00;99489.16;5090149;28;20035;-74
2023/11/10 00:08:12;;;;;;;2.92;0.95;;;;;;;6.67;100.00;99491.59;5080244;28;20111;-74
2023/11/10 00:10:37;;;;;;;1.02;0.70;;;;;;;6.67;100.00;99496.78;5073760;28;20060;-74
2023/11/10 00:13:03;;;;;;;1.42;0.70;;;;;;;6.66;100.00;99495.13;5080167;28;20031;-74
2023/11/10 00:15:29;;;;;;;3.65;0.70;;;;;;;6.66;100.00;99491.69;5085217;28;20066;-74
2023/11/10 00:17:55;;;;;;;0.77;0.75;;;;;;;6.65;100.00;99490.00;5085422;28;20358;-74
2023/11/10 00:20:22;;;;;;;0.95;0.77;;;;;;;6.61;100.00;99488.44;5075174;28;20043;-74
2023/11/10 00:22:48;;;;;;;1.92;0.50;;;;;;;6.63;100.00;99490.06;5083065;28;20036;-74
2023/11/10 00:25:13;;;;;;;3.90;0.98;;;;;;;6.61;100.00;99484.06;5086529;28;20077;-74
2023/11/10 00:27:38;;;;;;;1.80;0.90;;;;;;;6.63;100.00;99484.00;5091439;28;20066;-74
2023/11/10 00:30:04;;;;;;;2.25;0.90;;;;;;;6.62;100.00;99490.97;5077499;28;20040;-74
2023/11/10 00:32:30;;;;;;;4.97;0.90;;;;;;;6.61;100.00;99481.47;5092895;28;20047;-74
2023/11/10 00:34:55;;;;;;;5.55;1.00;;;;;;;6.56;100.00;99478.25;5083007;28;20061;-74
2023/11/10 00:37:21;;;;;;;1.38;1.20;;;;;;;6.55;100.00;99476.56;5084907;28;20059;-74
2023/11/10 00:39:47;;;;;;;1.90;0.98;;;;;;;6.53;100.00;99465.38;5093157;28;20440;-75
2023/11/10 00:42:12;;;;;;;1.95;0.80;;;;;;;6.53;100.00;99468.81;5089272;28;20039;-74
2023/11/10 00:44:38;;;;;;;2.88;1.30;;;;;;;6.55;100.00;99466.16;5089046;28;20027;-74
2023/11/10 00:47:04;;;;;;;2.13;0.88;;;;;;;6.60;100.00;99471.97;5074657;28;20297;-74
2023/11/10 00:49:29;;;;;;;3.38;1.00;;;;;;;6.62;100.00;99466.69;5076241;28;20023;-74
2023/11/10 00:51:55;;;;;;;1.38;1.02;;;;;;;6.64;100.00;99470.06;5075787;28;20075;-74
2023/11/10 00:54:20;;;;;;;2.53;0.90;;;;;;;6.66;100.00;99460.47;5082248;28;20036;-74
2023/11/10 00:56:45;;;;;;;1.50;1.00;;;;;;;6.60;100.00;99460.72;5081640;28;20032;-74
2023/11/10 00:59:11;;;;;;;2.88;1.35;;;;;;;6.62;100.00;99464.97;5082368;28;20103;-74
2023/11/10 01:01:37;;;;;;;4.40;0.90;;;;;;;6.62;100.00;99451.97;5080988;28;20085;-74
2023/11/10 01:04:03;;;;;;;3.60;1.00;;;;;;;6.58;100.00;99462.56;5089795;28;20102;-74
2023/11/10 01:06:30;;;;;;;2.40;0.85;;;;;;;6.62;100.00;99471.91;5077849;28;20329;-74
2023/11/10 01:08:57;;;;;;;1.42;0.85;;;;;;;6.58;100.00;99463.41;5085966;28;20069;-74
2023/11/10 01:11:23;;;;;;;3.08;0.90;;;;;;;6.61;100.00;99465.88;5082857;28;20049;-74
2023/11/10 01:13:48;;;;;;;1.63;0.80;;;;;;;6.65;100.00;99451.78;5082416;28;20063;-74
2023/11/10 01:16:14;;;;;;;1.70;1.10;;;;;;;6.68;100.00;99448.22;5093369;28;20028;-74
2023/11/10 01:18:39;;;;;;;3.78;1.20;;;;;;;6.64;100.00;99451.88;5075188;28;20068;-74
2023/11/10 01:21:05;;;;;;;3.13;1.35;;;;;;;6.63;100.00;99448.44;5073754;28;20082;-74
2023/11/10 01:23:30;;;;;;;1.73;1.10;;;;;;;6.69;100.00;99440.34;5080132;28;20036;-74
2023/11/10 01:25:56;;;;;;;2.13;1.30;;;;;;;6.69;100.00;99436.88;5079270;28;20461;-74
2023/11/10 01:28:21;;;;;;;5.55;2.22;;;;;;;6.68;100.00;99435.22;5086314;28;20040;-74
2023/11/10 01:30:47;;;;;;;1.33;1.13;;;;;;;6.66;100.00;99443.09;5091889;28;20415;-74
2023/11/10 01:33:12;;;;;;;1.45;1.25;;;;;;;6.70;100.00;99430.78;5079787;28;20040;-74
2023/11/10 01:35:38;;;;;;;1.10;0.95;;;;;;;6.68;100.00;99430.00;5088120;28;20042;-74
2023/11/10 01:38:03;;;;;;;2.08;1.25;;;;;;;6.67;100.00;99443.94;5093067;28;20188;-74
2023/11/10 01:40:40;;;;;;;3.92;1.13;;;;;;;6.67;100.00;99436.97;5091827;28;20043;-74
2023/11/10 01:43:09;;;;;;;2.08;1.02;;;;;;;6.66;100.00;99437.88;5074067;28;20150;-74
2023/11/10 01:45:34;;;;;;;2.55;1.02;;;;;;;6.64;100.00;99441.47;5077043;28;20267;-74
2023/11/10 01:47:59;;;;;;;4.35;1.38;;;;;;;6.68;100.00;99437.81;5073929;28;20036;-74
2023/11/10 01:50:25;;;;;;;0.82;0.80;;;;;;;6.66;100.00;99443.09;5084407;28;20054;-75
2023/11/10 01:52:52;;;;;;;4.05;0.95;;;;;;;6.66;100.00;99429.25;5093154;28;20347;-75
2023/11/10 01:55:18;;;;;;;1.48;1.17;;;;;;;6.64;100.00;99428.44;5092043;28;20034;-75
2023/11/10 01:57:46;;;;;;;4.43;0.95;;;;;;;6.58;100.00;99433.94;5092674;28;20107;-74
2023/11/10 02:00:13;;;;;;;2.40;1.17;;;;;;;6.59;100.00;99425.25;5088065;28;20036;-74
2023/11/10 02:02:38;;;;;;;1.25;0.70;;;;;;;6.60;100.00;99429.50;5077546;28;20031;-75
2023/11/10 02:05:05;;;;;;;0.82;0.65;;;;;;;6.61;100.00;99421.66;5087156;28;20247;-75
2023/11/10 02:07:30;;;;;;;2.17;0.70;;;;;;;6.64;100.00;99434.53;5094331;28;20325;-74
2023/11/10 02:09:56;;;;;;;2.40;0.65;;;;;;;6.59;100.00;99431.28;5090735;28;20044;-74
2023/11/10 02:12:21;;;;;;;1.98;0.55;;;;;;;6.61;100.00;99419.03;5088851;28;20059;-74
2023/11/10 02:14:46;;;;;;;4.00;1.10;;;;;;;6.59;100.00;99420.88;5084905;28;20043;-74
2023/11/10 02:17:14;;;;;;;3.22;0.90;;;;;;;6.56;100.00;99420.19;5084326;28;20262;-74
2023/11/10 02:19:39;;;;;;;1.80;1.00;;;;;;;6.59;100.00;99433.06;5093763;28;20315;-74
2023/11/10 02:22:05;;;;;;;1.42;1.08;;;;;;;6.57;100.00;99425.31;5077275;28;20051;-74
2023/11/10 02:24:31;;;;;;;2.40;0.80;;;;;;;6.59;100.00;99428.69;5081077;28;20096;-74
2023/11/10 02:26:57;;;;;;;3.97;1.05;;;;;;;6.61;100.00;99431.22;5059185;28;20036;-74
2023/11/10 02:29:22;;;;;;;8.85;1.60;;;;;;;6.62;100.00;99428.56;5076817;28;20082;-74
2023/11/10 02:31:49;;;;;;;3.28;1.10;;;;;;;6.62;100.00;99420.75;5076917;28;20036;-74
2023/11/10 02:34:15;;;;;;;2.25;1.20;;;;;;;6.60;100.00;99424.31;5078593;28;20095;-74
2023/11/10 02:36:41;;;;;;;3.88;1.30;;;;;;;6.61;100.00;99431.22;5080233;28;20059;-74
2023/11/10 02:39:07;;;;;;;6.25;2.08;;;;;;;6.62;100.00;99436.34;5091258;28;20063;-74
2023/11/10 02:41:32;;;;;;;3.20;1.48;;;;;;;6.65;100.00;99422.34;5082817;28;20346;-74
2023/11/10 02:43:58;;;;;;;3.60;1.40;;;;;;;6.67;100.00;99430.91;5076926;28;20298;-74
2023/11/10 02:46:23;;;;;;;2.00;1.15;;;;;;;6.70;100.00;99436.00;5084313;28;20036;-74
2023/11/10 02:48:49;;;;;;;4.82;1.38;;;;;;;6.70;100.00;99434.22;5089300;28;20047;-74
2023/11/10 02:51:14;;;;;;;4.25;1.60;;;;;;;6.68;100.00;99437.81;5088561;28;20062;-74
2023/11/10 02:53:41;;;;;;;3.35;1.35;;;;;;;6.70;100.00;99442.03;5076445;28;20355;-74
2023/11/10 02:56:06;;;;;;;1.42;1.33;;;;;;;6.72;100.00;99442.78;5076861;28;20054;-74
2023/11/10 02:58:35;;;;;;;2.85;1.50;;;;;;;6.75;100.00;99438.34;5077844;28;20052;-74
2023/11/10 03:01:00;;;;;;;2.33;1.55;;;;;;;6.77;100.00;99434.78;5083500;28;20036;-74
2023/11/10 03:03:25;;;;;;;4.88;1.48;;;;;;;6.74;100.00;99434.91;5077861;28;20264;-74
2023/11/10 03:05:52;;;;;;;4.15;1.67;;;;;;;6.74;100.00;99437.53;5075897;28;20099;-74
2023/11/10 03:08:17;;;;;;;3.20;1.63;;;;;;;6.75;100.00;99435.75;5095269;28;20059;-74
2023/11/10 03:10:43;;;;;;;4.32;1.70;;;;;;;6.76;100.00;99435.69;5094697;28;20298;-74
2023/11/10 03:13:09;;;;;;;5.20;1.63;;;;;;;6.79;100.00;99432.13;5095124;28;20095;-74
2023/11/10 03:15:36;;;;;;;2.92;1.50;;;;;;;6.72;100.00;99437.59;5094577;28;20246;-74
2023/11/10 03:18:01;;;;;;;2.38;1.50;;;;;;;6.72;100.00;99421.97;5079027;28;20228;-74
2023/11/10 03:20:27;;;;;;;2.72;1.90;;;;;;;6.69;100.00;99431.69;5083141;28;20065;-74
2023/11/10 03:22:52;;;;;;;5.43;1.73;;;;;;;6.67;100.00;99423.94;5094795;28;20038;-74
2023/11/10 03:25:17;;;;;;;5.13;1.85;;;;;;;6.72;100.00;99426.34;5094831;28;20059;-74
2023/11/10 03:27:43;;;;;;;2.45;1.70;;;;;;;6.68;100.00;99423.03;5087730;28;20081;-74
2023/11/10 03:30:09;;;;;;;6.28;1.70;;;;;;;6.67;100.00;99417.91;5079896;28;20264;-74
2023/11/10 03:32:34;;;;;;;2.38;1.42;;;;;;;6.65;100.00;99423.19;5074820;28;20121;-74
2023/11/10 03:35:00;;;;;;;3.45;1.50;;;;;;;6.64;100.00;99429.31;5091797;28;20094;-74
2023/11/10 03:37:25;;;;;;;5.57;1.63;;;;;;;6.65;100.00;99428.38;5091708;28;20385;-74
2023/11/10 03:39:51;;;;;;;5.57;1.52;;;;;;;6.65;100.00;99430.97;5082621;28;20038;-74
2023/11/10 03:42:16;;;;;;;3.22;1.35;;;;;;;6.67;100.00;99434.34;5093006;28;20081;-74
2023/11/10 03:44:41;;;;;;;3.75;1.42;;;;;;;6.67;100.00;99426.53;5082802;28;20031;-74
2023/11/10 03:47:07;;;;;;;4.20;1.48;;;;;;;6.66;100.00;99424.88;5079592;28;20284;-74
2023/11/10 03:49:34;;;;;;;4.85;1.38;;;;;;;6.62;100.00;99431.16;5092101;28;20107;-74
2023/11/10 03:51:59;;;;;;;6.75;1.30;;;;;;;6.60;100.00;99430.34;5075523;28;20327;-74
2023/11/10 03:54:25;;;;;;;8.13;1.30;;;;;;;6.59;100.00;99433.88;5066143;28;20031;-74
2023/11/10 03:56:50;;;;;;;2.78;0.98;;;;;;;6.61;100.00;99421.66;5092804;28;20347;-74
2023/11/10 03:59:15;;;;;;;3.53;1.40;;;;;;;6.60;100.00;99435.56;5092381;28;20354;-74
2023/11/10 04:01:41;;;;;;;3.75;1.42;;;;;;;6.60;100.00;99432.13;5092363;28;20039;-74
2023/11/10 04:04:09;;;;;;;5.10;1.65;;;;;;;6.66;100.00;99432.69;5092805;28;20031;-74
2023/11/10 04:06:35;;;;;;;;;;;;;;;6.66;100.00;99427.47;5094340;28;20264;-74
2023/11/10 04:09:04;;;;;;;2.20;1.60;;;;;;;6.66;100.00;99426.66;5084765;28;19946;-74
2023/11/10 04:11:29;;;;;;;2.20;1.30;;;;;;;6.66;100.00;99430.09;5074300;28;20032;-74
2023/11/10 04:13:56;;;;;;;5.28;1.27;;;;;;;6.62;100.00;99431.16;5079374;28;20385;-74
2023/11/10 04:16:23;;;;;;;7.05;1.35;;;;;;;6.64;100.00;99442.31;5089854;28;20051;-74
2023/11/10 04:18:54;;;;;;;6.93;1.48;;;;;;;6.61;100.00;99452.03;5074679;28;20101;-74
2023/11/10 04:21:26;;;;;;;6.43;1.40;;;;;;;6.61;100.00;99445.06;5074858;28;20031;-74
2023/11/10 04:23:51;;;;;;;5.13;1.70;;;;;;;6.65;100.00;99446.59;5089408;28;20039;-74
2023/11/10 04:26:17;;;;;;;3.97;1.55;;;;;;;6.63;100.00;99451.03;5081832;28;20036;-74
2023/11/10 04:28:47;;;;;;;8.50;2.35;;;;;;;6.64;100.00;99451.88;5090873;28;20040;-74
2023/11/10 04:31:14;;;;;;;4.43;1.48;;;;;;;6.64;100.00;99449.25;5090334;28;20049;-74
2023/11/10 04:33:40;;;;;;;2.13;1.20;;;;;;;6.64;100.00;99441.47;5081584;28;20038;-74
2023/11/10 04:36:07;;;;;;;12.48;1.35;;;;;;;6.64;100.00;99436.25;5086216;28;20064;-74
2023/11/10 04:38:33;;;;;;;4.97;1.50;;;;;;;6.62;100.00;99443.28;5083363;28;20203;-74
2023/11/10 04:40:59;;;;;;;3.80;1.20;;;;;;;6.58;100.00;99447.78;5072099;28;20032;-74
2023/11/10 04:43:25;;;;;;;4.10;1.38;;;;;;;6.61;100.00;99442.47;5093587;28;20124;-74
2023/11/10 04:45:50;;;;;;;3.35;1.10;;;;;;;6.63;100.00;99445.81;5085446;28;20111;-74
2023/11/10 04:48:16;;;;;;;3.70;1.25;;;;;;;6.66;100.00;99437.88;5079082;28;20036;-74
2023/11/10 04:50:41;;;;;;;2.90;1.20;;;;;;;6.67;100.00;99441.31;5083033;28;20093;-74
2023/11/10 04:53:08;;;;;;;3.03;1.00;;;;;;;6.62;100.00;99431.16;5093071;28;20131;-74
2023/11/10 04:55:33;;;;;;;4.20;1.17;;;;;;;6.61;100.00;99445.06;5083684;28;20119;-74
2023/11/10 04:57:58;;;;;;;4.70;1.50;;;;;;;6.58;100.00;99432.19;5073991;28;20403;-74
2023/11/10 05:00:24;;;;;;;8.02;1.38;;;;;;;6.52;100.00;99433.31;5078554;28;20032;-74
2023/11/10 05:02:50;;;;;;;3.72;0.90;;;;;;;6.56;100.00;99439.22;5093016;28;20231;-74
2023/11/10 05:05:16;;;;;;;3.33;1.35;;;;;;;6.56;100.00;99438.38;5078907;28;20062;-74
2023/11/10 05:07:41;;;;;;;2.00;1.30;;;;;;;6.56;100.00;99439.22;5086600;28;20039;-74
2023/11/10 05:10:12;;;;;;;2.13;1.35;;;;;;;6.57;100.00;99433.13;5093319;28;20293;-74
2023/11/10 05:12:38;;;;;;;4.00;1.25;;;;;;;6.58;100.00;99441.75;5079736;28;20235;-74
2023/11/10 05:15:05;;;;;;;6.78;1.67;;;;;;;6.57;100.00;99435.72;5074041;28;20039;-74
2023/11/10 05:17:36;;;;;;;3.35;1.25;;;;;;;6.58;100.00;99434.78;5087572;28;20035;-74
2023/11/10 05:20:02;;;;;;;5.80;1.38;;;;;;;6.60;100.00;99439.91;5084443;28;20334;-74
2023/11/10 05:22:30;;;;;;;4.10;1.45;;;;;;;6.62;100.00;99440.69;5075649;28;20032;-74
2023/11/10 05:24:56;;;;;;;3.03;1.20;;;;;;;6.63;100.00;99427.63;5087630;28;20024;-74
2023/11/10 05:27:23;;;;;;;5.97;1.50;;;;;;;6.61;100.00;99436.41;5088183;28;20042;-74
2023/11/10 05:29:48;;;;;;;4.93;1.58;;;;;;;6.64;100.00;99436.25;5077820;28;20036;-74
2023/11/10 05:32:14;;;;;;;9.23;1.88;;;;;;;6.66;100.00;99442.25;5086794;28;20032;-74
2023/11/10 05:34:40;;;;;;;9.60;2.30;;;;;;;6.67;100.00;99443.94;5084363;28;20331;-74
2023/11/10 05:37:09;;;;;;;5.28;1.40;;;;;;;6.69;100.00;99442.09;5077694;28;20055;-74
2023/11/10 05:39:35;;;;;;;5.45;1.67;;;;;;;6.69;100.00;99444.69;5073417;28;20399;-74
2023/11/10 05:42:00;;;;;;;4.20;1.40;;;;;;;6.70;100.00;99431.63;5072725;28;20039;-74
2023/11/10 05:44:26;;;;;;;2.78;1.35;;;;;;;6.70;100.00;99436.81;5078951;28;20036;-74
2023/11/10 05:46:51;;;;;;;4.15;1.60;;;;;;;6.67;100.00;99436.97;5094691;28;20027;-74
2023/11/10 05:49:16;;;;;;;4.88;1.45;;;;;;;6.68;100.00;99422.22;5096056;28;20035;-74
2023/11/10 05:51:41;;;;;;;4.10;1.40;;;;;;;6.65;100.00;99428.38;5094436;28;20043;-74
2023/11/10 05:54:07;;;;;;;5.40;2.05;;;;;;;6.63;100.00;99416.38;5086743;28;20035;-73
2023/11/10 05:56:32;;;;;;;4.63;1.80;;;;;;;6.70;100.00;99423.81;5077981;28;20114;-73
2023/11/10 05:58:58;;;;;;;4.38;1.70;;;;;;;6.78;100.00;99425.22;5077628;28;20091;-73
2023/11/10 06:01:24;;;;;;;4.35;1.75;;;;;;;6.78;100.00;99433.84;5096029;28;20035;-73
2023/11/10 06:03:50;;;;;;;4.82;1.75;;;;;;;6.82;100.00;99426.75;5091698;28;20035;-72
2023/11/10 06:06:16;;;;;;;3.55;1.77;;;;;;;6.88;100.00;99434.28;5096333;28;20024;-72
2023/11/10 06:08:41;;;;;;;7.75;1.70;;;;;;;6.85;100.00;99440.44;5089110;28;20086;-74
2023/11/10 06:11:07;;;;;;;5.88;1.60;;;;;;;6.79;100.00;99447.72;5080563;28;20081;-74
2023/11/10 06:13:33;;;;;;;2.92;1.58;;;;;;;6.75;100.00;99444.44;5087120;28;20035;-74
2023/11/10 06:15:59;;;;;;;6.03;1.55;;;;;;;6.77;100.00;99449.53;5067912;28;20032;-74
2023/11/10 06:18:25;;;;;;;5.88;1.63;;;;;;;6.76;100.00;99453.06;5093623;28;20035;-74
2023/11/10 06:20:50;;;;;;;6.32;1.60;;;;;;;6.75;100.00;99451.38;5095998;28;20043;-74
2023/11/10 06:23:15;;;;;;;5.65;1.73;;;;;;;6.74;100.00;99458.34;5096359;28;20358;-74
2023/11/10 06:25:41;;;;;;;6.53;1.52;;;;;;;6.73;100.00;99448.81;5077653;28;20028;-74
2023/11/10 06:28:06;;;;;;;4.35;1.33;;;;;;;6.70;100.00;99451.59;5086283;28;20298;-74
2023/11/10 06:30:31;;;;;;;6.78;2.03;;;;;;;6.68;100.00;99451.66;5087171;28;20035;-74
2023/11/10 06:32:57;;;;;;;3.80;1.35;;;;;;;6.68;100.00;99446.47;5091664;28;20631;-74
2023/11/10 06:35:22;;;;;;;3.45;1.40;;;;;;;6.70;100.00;99451.59;5087056;28;20040;-74
2023/11/10 06:37:47;;;;;;;5.65;1.23;;;;;;;6.71;100.00;99442.84;5076100;28;20033;-74
2023/11/10 06:40:13;;;;;;;4.78;1.70;;;;;;;6.71;100.00;99453.25;5080540;28;20047;-74
2023/11/10 06:42:39;;;;;;;3.45;1.70;;;;;;;6.68;100.00;99453.44;5077496;28;20032;-74
2023/11/10 06:45:05;;;;;;;6.57;1.80;;;;;;;6.67;100.00;99443.94;5084659;28;20394;-74
2023/11/10 06:47:30;;;;;;;5.18;1.42;;;;;;;6.64;100.00;99450.13;5095843;28;20067;-74
2023/11/10 06:49:56;;;;;;;3.92;1.70;;;;;;;6.66;100.00;99460.47;5096618;28;20103;-74
2023/11/10 06:52:22;;;;;;;6.75;2.17;;;;;;;6.66;100.00;99465.66;5094434;28;20396;-74
2023/11/10 06:54:48;;;;;;;5.22;1.60;;;;;;;6.66;100.00;99469.09;5095778;28;20054;-74
2023/11/10 06:57:15;;;;;;;5.55;1.88;;;;;;;6.70;100.00;99467.22;5092728;28;20324;-74
2023/11/10 06:59:41;;;;;;;4.85;1.63;;;;;;;6.71;100.00;99466.28;5086041;28;20382;-74
2023/11/10 07:02:09;;;;;;;2.50;1.88;;;;;;;6.69;100.00;99470.72;5095542;28;20220;-74
2023/11/10 07:04:35;;;;;;;2.78;1.65;;;;;;;6.72;100.00;99463.59;5094452;28;20028;-74
2023/11/10 07:07:00;;;;;;;5.05;2.13;;;;;;;6.73;100.00;99460.09;5091201;28;20060;-74
2023/11/10 07:09:26;;;;;;;6.40;2.17;;;;;;;6.76;100.00;99474.72;5090975;28;20067;-74
2023/11/10 07:11:51;;;;;;;3.95;1.90;;;;;;;6.79;100.00;99469.38;5094379;28;20335;-74
2023/11/10 07:14:16;;;;;;;7.63;2.53;;;;;;;6.80;100.00;99475.41;5086494;28;20247;-74
2023/11/10 07:16:43;;;;;;;4.43;2.47;;;;;;;6.81;100.00;99477.13;5086794;28;20056;-74
2023/11/10 07:19:09;;;;;;;6.65;2.67;;;;;;;6.76;100.00;99464.31;5088250;28;20039;-74
2023/11/10 07:21:34;;;;;;;6.80;2.47;;;;;;;6.75;100.00;99470.44;5085384;28;20258;-74
2023/11/10 07:24:00;;;;;;;7.47;3.00;;;;;;;6.76;100.00;99466.06;5085663;28;20032;-74
2023/11/10 07:26:25;;;;;;;8.32;2.75;;;;;;;6.76;100.00;99459.09;5086183;28;20075;-74
2023/11/10 07:28:51;;;;;;;5.95;2.45;;;;;;;6.78;100.00;99466.84;5082783;28;20024;-74
2023/11/10 07:31:16;;;;;;;8.73;3.03;;;;;;;6.78;100.00;99453.84;5084071;28;20042;-74
2023/11/10 07:33:42;;;;;;;3.17;2.67;;;;;;;6.80;100.00;99467.59;5084162;28;20036;-74
2023/11/10 07:36:10;;;;;;;6.80;2.85;;;;;;;6.83;100.00;99464.88;5082474;28;20032;-74
2023/11/10 07:38:35;;;;;;;6.53;2.03;;;;;;;6.86;100.00;99457.75;5084765;28;20028;-74
2023/11/10 07:41:03;;;;;;;8.00;2.45;;;;;;;6.91;100.00;99462.72;5085904;28;20244;-74
2023/11/10 07:43:28;;;;;;;6.05;2.15;;;;;;;6.89;100.00;99462.84;5091034;28;20322;-74
2023/11/10 07:45:54;;;;;;;7.72;2.20;;;;;;;6.91;100.00;99454.94;5096043;28;20031;-74
2023/11/10 07:48:19;;;;;;;4.72;2.03;;;;;;;6.92;100.00;99459.22;5095517;28;20039;-74
2023/11/10 07:50:45;;;;;;;6.97;2.30;;;;;;;6.95;100.00;99461.69;5095505;28;20031;-74
2023/11/10 07:53:12;;;;;;;5.35;2.50;;;;;;;6.99;100.00;99459.78;5077629;28;20031;-74
2023/11/10 07:55:38;;;;;;;4.68;2.13;;;;;;;6.97;100.00;99459.00;5092481;28;20058;-74
2023/11/10 07:58:05;;;;;;;5.07;2.20;;;;;;;6.97;100.00;99448.59;5095493;28;20023;-74
2023/11/10 08:00:30;;;;;;;4.80;2.20;;;;;;;7.01;100.00;99468.38;5082586;28;20078;-74
2023/11/10 08:02:56;;;;;;;5.22;2.55;;;;;;;7.02;100.00;99462.22;5088929;28;20690;-74
2023/11/10 08:05:22;;;;;;;4.43;1.98;;;;;;;7.05;100.00;99470.72;5093864;28;20346;-74
2023/11/10 08:07:49;;;;;;;5.00;2.53;;;;;;;7.06;100.00;99462.03;5081703;28;20348;-74
2023/11/10 08:10:16;;;;;;;8.98;2.83;;;;;;;7.06;100.00;99458.59;5093809;28;20035;-74
2023/11/10 08:12:42;;;;;;;6.55;2.40;;;;;;;7.04;100.00;99461.25;5094713;28;20342;-74
2023/11/10 08:15:09;;;;;;;5.25;2.03;;;;;;;7.04;100.00;99463.00;5095428;28;20031;-74
2023/11/10 08:17:34;;;;;;;6.25;1.75;;;;;;;6.99;100.00;99463.22;5094327;28;20488;-74
2023/11/10 08:20:01;;;;;;;6.55;1.92;;;;;;;6.99;100.00;99460.63;5094521;28;20408;-74
2023/11/10 08:22:27;;;;;;;2.63;1.58;;;;;;;7.02;100.00;99463.09;5094463;28;20027;-74
2023/11/10 08:24:55;;;;;;;4.00;2.20;;;;;;;6.97;100.00;99451.19;5094655;28;20024;-74
2023/11/10 08:27:22;;;;;;;9.25;1.80;;;;;;;6.96;100.00;99442.53;5093740;28;20483;-74
2023/11/10 08:29:47;;;;;;;3.67;1.80;;;;;;;6.92;100.00;99441.84;5092802;28;20042;-74
2023/11/10 08:32:13;;;;;;;4.78;1.65;;;;;;;6.96;100.00;99442.53;5094304;28;20044;-74
2023/11/10 08:34:38;;;;;;;7.25;2.10;;;;;;;6.95;100.00;99438.28;5093830;28;20026;-74
2023/11/10 08:37:04;;;;;;;3.50;1.25;;;;;;;6.95;100.00;99430.47;5094508;28;20315;-74
2023/11/10 08:39:29;;;;;;;7.10;1.65;;;;;;;6.94;100.00;99431.38;5093546;28;20058;-74
2023/11/10 08:41:55;;;;;;;9.07;1.80;;;;;;;6.97;100.00;99422.56;5094563;28;20099;-74
2023/11/10 08:44:23;;;;;;;5.15;1.13;;;;;;;6.95;100.00;99421.78;5091274;28;20083;-74
2023/11/10 08:46:50;;;;;;;3.08;1.17;;;;;;;6.96;100.00;99424.31;5093450;28;20091;-74
2023/11/10 08:49:16;;;;;;;2.88;1.20;;;;;;;6.98;100.00;99424.25;5082285;28;20386;-74
2023/11/10 08:51:43;;;;;;;6.95;1.38;;;;;;;7.01;100.00;99427.56;5084243;28;20335;-74
2023/11/10 08:54:08;;;;;;;3.10;1.02;;;;;;;7.02;100.00;99426.66;5090308;28;20042;-74
2023/11/10 08:56:35;;;;;;;2.03;1.20;;;;;;;7.03;100.00;99443.94;5087101;28;20024;-74
2023/11/10 08:59:01;;;;;;;6.53;1.90;;;;;;;7.06;100.00;99451.59;5092096;28;20118;-74
2023/11/10 09:01:26;;;;;;;2.00;1.45;;;;;;;7.03;100.00;99445.69;5082859;28;20048;-74
2023/11/10 09:03:52;;;;;;;4.20;1.50;;;;;;;7.01;100.00;99440.56;5087029;28;20040;-74
2023/11/10 09:06:19;;;;;;;4.40;1.60;;;;;;;7.05;100.00;99428.25;5082769;28;20047;-74
2023/11/10 09:08:45;;;;;;;7.07;1.67;;;;;;;7.08;100.00;99435.91;5083604;28;20365;-74
2023/11/10 09:11:10;;;;;;;3.30;1.80;;;;;;;7.09;100.00;99433.25;5083624;28;20068;-74
2023/11/10 09:13:35;;;;;;;6.03;2.20;;;;;;;7.11;100.00;99439.22;5083370;28;20036;-74
2023/11/10 09:16:01;;;;;;;5.10;2.33;;;;;;;7.12;100.00;99432.25;5092499;28;20046;-74
2023/11/10 09:18:27;;;;;;;3.70;2.60;;;;;;;7.17;100.00;99426.78;5093144;28;20444;-74
2023/11/10 09:20:53;;;;;;;2.15;2.00;;;;;;;7.18;100.00;99428.50;5094815;28;20331;-74
2023/11/10 09:23:18;;;;;;;8.02;2.35;;;;;;;7.19;100.00;99435.41;5091423;28;20043;-74
2023/11/10 09:25:44;;;;;;;6.15;2.38;;;;;;;7.10;100.00;99415.84;5088415;28;20098;-74
2023/11/10 09:28:09;;;;;;;5.65;2.30;;;;;;;7.15;100.00;99411.28;5089994;28;20085;-74
2023/11/10 09:30:34;;;;;;;3.75;2.13;;;;;;;7.17;100.00;99417.25;5093398;28;20378;-74
2023/11/10 09:33:00;;;;;;;6.13;2.63;;;;;;;7.16;100.00;99422.53;5091859;28;20029;-74
2023/11/10 09:35:26;;;;;;;3.80;2.80;;;;;;;7.14;100.00;99412.16;5094694;28;20035;-74
2023/11/10 09:37:52;;;;;;;4.10;2.50;;;;;;;7.17;100.00;99413.78;5095369;28;20026;-74
2023/11/10 09:40:23;;;;;;;3.33;2.38;;;;;;;7.17;100.00;99409.44;5091082;28;20081;-74
2023/11/10 09:42:48;;;;;;;2.42;1.98;;;;;;;7.16;100.00;99407.72;5087181;28;20374;-74
2023/11/10 09:45:15;;;;;;;5.07;2.60;;;;;;;7.17;100.00;99405.97;5084344;28;20059;-74
2023/11/10 09:47:41;;;;;;;4.63;2.72;;;;;;;7.18;100.00;99405.88;5083941;28;20036;-74
2023/11/10 09:50:09;;;;;;;7.88;3.42;;;;;;;7.16;100.00;99409.50;5083358;28;20028;-74
2023/11/10 09:52:38;;;;;;;4.63;2.30;;;;;;;7.17;100.00;99399.00;5087824;28;20374;-74
2023/11/10 09:55:05;;;;;;;9.52;3.60;;;;;;;7.17;100.00;99405.97;5090294;28;20254;-74
2023/11/10 09:57:30;;;;;;;7.05;2.80;;;;;;;7.15;100.00;99405.19;5090655;28;20238;-74
2023/11/10 09:59:56;;;;;;;6.05;2.13;;;;;;;7.20;100.00;99403.22;5092436;28;20097;-74
2023/11/10 10:02:22;;;;;;;5.88;3.05;;;;;;;7.20;100.00;99411.84;5089005;28;20127;-74
2023/11/10 10:04:48;;;;;;;9.20;3.72;;;;;;;7.22;100.00;99411.78;5087875;28;20050;-74
2023/11/10 10:07:14;;;;;;;5.40;3.00;;;;;;;7.20;100.00;99408.41;5087814;28;20063;-74
2023/11/10 10:09:41;;;;;;;8.55;2.45;;;;;;;7.19;100.00;99414.56;5089512;28;20068;-74
2023/11/10 10:12:08;;;;;;;4.78;2.50;;;;;;;7.21;100.00;99420.53;5090102;28;20058;-74
2023/11/10 10:14:37;;;;;;;7.20;2.67;;;;;;;7.26;100.00;99408.97;5090393;28;20040;-74
2023/11/10 10:17:03;;;;;;;7.53;2.53;;;;;;;7.26;100.00;99421.16;5088691;28;20065;-74
2023/11/10 10:19:29;;;;;;;4.22;2.45;;;;;;;7.28;100.00;99419.31;5089624;28;20057;-74
2023/11/10 10:21:55;;;;;;;6.80;2.30;;;;;;;7.29;100.00;99408.81;5088392;28;20385;-74
2023/11/10 10:24:21;;;;;;;5.28;2.70;;;;;;;7.33;100.00;99411.25;5085467;28;20047;-74
2023/11/10 10:26:47;;;;;;;4.55;2.63;;;;;;;7.35;100.00;99415.50;5083317;28;20353;-74
2023/11/10 10:29:13;;;;;;;5.53;2.60;;;;;;;7.36;100.00;99403.31;5082435;28;20036;-74
2023/11/10 10:31:38;;;;;;;3.80;2.55;;;;;;;7.39;100.00;99408.38;5086408;28;20047;-74
2023/11/10 10:34:04;;;;;;;5.78;2.67;;;;;;;7.43;100.00;99399.47;5095346;28;20054;-74
2023/11/10 10:36:35;;;;;;;6.00;2.63;;;;;;;7.45;100.00;99408.88;5093993;28;20047;-74
2023/11/10 10:39:04;;;;;;;4.95;2.58;;;;;;;7.49;100.00;99405.22;5096431;28;20349;-74
2023/11/10 10:41:32;;;;;;;5.68;2.72;;;;;;;7.53;100.00;99407.66;5090839;28;20247;-74
2023/11/10 10:44:00;;;;;;;7.17;2.20;;;;;;;7.58;100.00;99405.66;5079798;28;20034;-74
2023/11/10 10:46:27;;;;;;;4.35;2.13;;;;;;;7.60;100.00;99398.59;5090295;28;20383;-74
2023/11/10 10:48:53;;;;;;;6.85;2.17;;;;;;;7.60;100.00;99407.25;5086804;28;20035;-74
2023/11/10 10:51:20;;;;;;;8.35;2.63;;;;;;;7.60;100.00;99401.19;5091864;28;20087;-74
2023/11/10 10:53:48;;;;;;;5.47;2.28;;;;;;;7.60;100.00;99403.81;5093757;28;20063;-74
2023/11/10 10:56:17;;;;;;;4.45;2.35;;;;;;;7.59;100.00;99413.41;5093415;28;20038;-74
2023/11/10 10:58:43;;;;;;;5.63;2.55;;;;;;;7.62;100.00;99407.19;5085698;28;20028;-74
2023/11/10 11:01:09;;;;;;;5.20;3.08;;;;;;;7.62;100.00;99396.75;5094407;28;20117;-74
2023/11/10 11:03:34;;;;;;;6.20;1.80;;;;;;;7.61;100.00;99403.72;5092540;28;20042;-74
2023/11/10 11:06:14;;;;;;;8.07;2.58;;;;;;;7.61;100.00;99400.28;5079544;28;20020;-74
2023/11/10 11:09:01;;;;;;;4.65;2.53;;;;;;;7.59;100.00;99399.53;5084761;28;20082;-74
2023/11/10 11:11:50;;;;;;;4.10;1.85;;;;;;;7.58;100.00;99400.44;5092016;28;20028;-74
2023/11/10 11:14:39;;;;;;;6.70;2.13;;;;;;;7.59;100.00;99407.34;5082728;28;20043;-74
2023/11/10 11:17:17;;;;;;;8.02;1.88;;;;;;;7.56;100.00;99408.34;5093151;28;20102;-74
2023/11/10 11:19:43;;;;;;;5.43;1.88;;;;;;;7.55;100.00;99418.81;5094192;28;20393;-74
2023/11/10 11:22:09;;;;;;;4.20;2.20;;;;;;;7.47;100.00;99419.22;5093949;28;20031;-74
2023/11/10 11:24:34;;;;;;;4.00;1.50;;;;;;;7.49;100.00;99430.41;5095180;28;20296;-74
2023/11/10 11:27:01;;;;;;;3.00;1.85;;;;;;;7.48;100.00;99420.91;5087987;28;20028;-74
2023/11/10 11:29:40;;;;;;;3.70;1.63;;;;;;;7.49;100.00;99418.25;5093238;28;20032;-74